Decoded Metar for SLOR (ORURO in BOLIVIA) (IATA:N/A) | Meteo·Mobile Aviation Weather
aviador You're here:

SLOR Decoded Metar

ORURO in BOLIVIA
Report Time2018-12-14 17:00:00
UTC Time2018-12-14 17:52:03
Flight Rules vfr VFR
Wind240° at 11 kt
W.Decomp.*RWY 27: 10.0 kt HW 4.5 kt LCW
RWY 19: 6.2 kt HW 9.1 kt RCW
W.Rank240° ranks 29
Current wind is above 240° avg. (6.8)
Visibility9999 m
Phenomena:N/A
Clouds:Few 023 Hf
Expected CloudBase > 8,400 ft AGL from Temp-Dew spread
CeilingNone
Temp23°C (ISA +32)
Dew Point02°C (25% RH)
AAT17.4°C
QNH1033 hPa
Density Alt15,171 ft
Elevation12,146 ft
Report Wrong Elevation
Raw Report
METAR SLOR 141700Z 24011KT 9999 FEW023 23/02 Q1033=

Extra information for SLOR:More info

Metar Taf Metar & Taf Last 4 Metars F.Rules Stats Wind Profile Meteogram Temp Stats Airport Information Weather charts Add Link Nearby VenuesMetar ALERT Operation Metar Decoded Social comments